Arlington, Vermont
Current Conditions -  °F | °C
As of 1:54 PM on Thursday 30 Oct 2014 (Local Time) from KDDH Reporting Station
Overcast Overcast  
Wind Chill: 50°   Ceiling: 3900
Heat Index: 50°   Visibility: 10mi
Dew Point: 35°   Wind: 3mph
Humidity: 57%   Direction: 260°W
Pressure: 29.94"   Gusts: NA
Location:  43.07°N, 73.15°W
Report Text: KDDH 301754Z AUTO 26003KT 10SM BKN039 BKN046 OVC055 10/02 A2994 RMK AO2 SLP142 T01000017 10106 20078 58008
Loading
Personal Weather Stations






























Interactive Weather Map
Tropical Storm Tracking
New forecast layout! Learn more

10-Day Weather Forecast

Advertisements
Track Severe Weather on mobile